createdAt,value
2022-08-22T00:00:51.043Z,13.27
2022-08-22T00:03:00.777Z,10.88
2022-08-22T00:03:10.286Z,11.20
2022-08-22T00:04:02.880Z,12.48
2022-08-22T00:07:22.419Z,10.25
2022-08-22T00:10:34.059Z,9.73
2022-08-22T00:13:59.239Z,16.27
2022-08-22T00:17:13.347Z,11.43
2022-08-22T00:20:19.638Z,15.13
2022-08-22T00:23:44.122Z,12.52
2022-08-22T00:26:53.795Z,16.83
2022-08-22T00:30:13.388Z,13.98
2022-08-22T00:33:28.436Z,13.48
2022-08-22T00:36:47.916Z,14.63
2022-08-22T00:40:19.812Z,15.70
2022-08-22T00:43:42.868Z,15.30
2022-08-22T00:46:57.024Z,14.35
2022-08-22T00:50:26.336Z,12.35
2022-08-22T00:53:31.262Z,12.32
2022-08-22T00:56:55.240Z,12.73
2022-08-22T01:00:00.239Z,12.98
2022-08-22T01:03:26.929Z,12.80
2022-08-22T01:06:31.710Z,17.60
2022-08-22T01:09:52.937Z,12.98
2022-08-22T01:13:03.852Z,13.07
2022-08-22T01:16:49.190Z,12.90
2022-08-22T01:20:15.797Z,13.85
2022-08-22T01:23:56.415Z,11.55
2022-08-22T01:27:39.600Z,14.07
2022-08-22T01:34:37.752Z,16.00
2022-08-22T01:37:54.832Z,14.27
2022-08-22T01:41:21.131Z,15.05
2022-08-22T01:44:32.410Z,13.70
2022-08-22T01:48:20.451Z,12.80
2022-08-22T01:51:25.012Z,12.68
2022-08-22T01:54:50.781Z,13.00
2022-08-22T01:57:55.063Z,17.33
2022-08-22T02:01:03.949Z,18.45
2022-08-22T02:04:07.526Z,14.77
2022-08-22T02:07:21.002Z,15.27
2022-08-22T02:10:45.413Z,14.32
2022-08-22T02:13:55.019Z,13.73
2022-08-22T02:17:10.072Z,13.20
2022-08-22T02:20:24.514Z,15.13
2022-08-22T02:23:48.224Z,11.73
2022-08-22T02:27:05.329Z,10.60
2022-08-22T02:30:12.865Z,8.55
2022-08-22T02:33:34.434Z,14.95
2022-08-22T02:36:49.279Z,12.73
2022-08-22T02:39:57.209Z,11.80
2022-08-22T02:43:18.500Z,13.23
2022-08-22T02:46:52.832Z,11.88
2022-08-22T02:50:23.909Z,18.50
2022-08-22T02:53:40.022Z,10.00
2022-08-22T02:56:50.181Z,15.85
2022-08-22T03:03:38.476Z,9.70
2022-08-22T03:06:43.958Z,13.45
2022-08-22T03:09:45.888Z,13.57
2022-08-22T03:13:02.534Z,12.40
2022-08-22T03:16:16.655Z,15.80
2022-08-22T03:19:21.357Z,18.45
2022-08-22T03:22:31.459Z,12.38
2022-08-22T03:26:14.322Z,14.02
2022-08-22T03:29:45.384Z,14.63
2022-08-22T03:32:59.509Z,12.32
2022-08-22T03:36:16.600Z,17.33
2022-08-22T03:39:19.476Z,17.05
2022-08-22T03:42:49.229Z,16.83
2022-08-22T03:46:33.937Z,18.13
2022-08-22T03:49:38.867Z,15.95
2022-08-22T03:53:15.328Z,13.82
2022-08-22T03:56:38.610Z,13.40
2022-08-22T04:00:12.728Z,12.75
2022-08-22T04:03:21.307Z,15.73
2022-08-22T04:06:41.927Z,14.02
2022-08-22T04:09:52.447Z,13.95
2022-08-22T04:13:09.148Z,11.63
2022-08-22T04:16:14.134Z,14.18
2022-08-22T04:19:54.198Z,10.95
2022-08-22T04:23:31.054Z,11.07
2022-08-22T04:26:56.951Z,12.43
2022-08-22T04:30:04.411Z,15.00
2022-08-22T04:33:14.533Z,12.65
2022-08-22T04:36:23.395Z,13.63
2022-08-22T04:39:42.492Z,17.40
2022-08-22T04:42:49.717Z,16.02
2022-08-22T04:46:11.971Z,10.77
2022-08-22T04:49:19.836Z,11.75
2022-08-22T04:52:24.504Z,11.70
2022-08-22T04:55:43.352Z,16.45
2022-08-22T04:58:54.465Z,13.50
2022-08-22T05:01:59.915Z,11.40
2022-08-22T05:05:13.833Z,8.90
2022-08-22T05:08:31.087Z,17.08
2022-08-22T05:11:33.236Z,15.18
2022-08-22T05:14:42.660Z,14.10
2022-08-22T05:17:44.648Z,15.55
2022-08-22T05:20:47.836Z,12.70
2022-08-22T05:24:05.582Z,18.33
2022-08-22T05:27:24.612Z,12.48
2022-08-22T05:30:27.919Z,16.17
2022-08-22T05:33:34.944Z,18.08
2022-08-22T05:36:45.682Z,12.07
2022-08-22T05:39:49.318Z,16.48
2022-08-22T05:42:51.288Z,14.25
2022-08-22T05:45:53.200Z,14.02
2022-08-22T05:48:57.375Z,13.18
2022-08-22T05:52:18.053Z,12.63
2022-08-22T05:55:44.009Z,17.88
2022-08-22T05:58:54.348Z,10.70
2022-08-22T06:02:06.049Z,14.02
2022-08-22T06:05:11.866Z,13.37
2022-08-22T06:08:25.233Z,11.20
2022-08-22T06:11:40.851Z,14.90
2022-08-22T06:14:49.027Z,10.82
2022-08-22T06:18:01.673Z,11.40
2022-08-22T06:21:05.044Z,14.80
2022-08-22T06:24:08.747Z,11.90
2022-08-22T06:27:12.922Z,12.00
2022-08-22T06:30:15.400Z,14.43
2022-08-22T06:33:19.043Z,12.38
2022-08-22T06:36:34.108Z,11.50
2022-08-22T06:39:38.749Z,10.60
2022-08-22T06:42:42.608Z,11.20
2022-08-22T06:45:44.504Z,10.50
2022-08-22T06:48:46.851Z,11.05
2022-08-22T06:51:48.819Z,10.45
2022-08-22T06:54:57.476Z,11.00
2022-08-22T06:58:04.080Z,11.52
2022-08-22T07:01:18.599Z,12.38
2022-08-22T07:04:25.995Z,10.93
2022-08-22T07:07:27.953Z,11.43
2022-08-22T07:10:29.833Z,12.15
2022-08-22T07:13:31.794Z,11.75
2022-08-22T07:16:44.952Z,10.57
2022-08-22T07:19:57.404Z,10.07
2022-08-22T07:23:10.680Z,11.57
2022-08-22T07:26:31.149Z,10.30
2022-08-22T07:30:00.425Z,9.68
2022-08-22T07:33:26.702Z,11.05
2022-08-22T07:36:46.112Z,10.63
2022-08-22T07:39:58.084Z,8.90
2022-08-22T07:43:35.532Z,8.13
2022-08-22T07:46:41.346Z,9.48
2022-08-22T07:49:49.736Z,8.93
2022-08-22T07:52:51.875Z,9.25
2022-08-22T07:55:55.445Z,9.82
2022-08-22T07:59:00.016Z,8.57
2022-08-22T08:02:01.956Z,10.82
2022-08-22T08:05:04.127Z,10.57
2022-08-22T08:08:09.071Z,11.90
2022-08-22T08:11:18.973Z,8.13
2022-08-22T08:14:22.125Z,8.85
2022-08-22T08:17:32.065Z,10.05
2022-08-22T08:23:45.332Z,10.18
2022-08-22T08:27:12.600Z,8.93
2022-08-22T08:30:44.606Z,11.20
2022-08-22T08:33:48.339Z,7.78
2022-08-22T08:37:13.529Z,9.60
2022-08-22T08:40:44.021Z,9.35
2022-08-22T08:43:53.623Z,9.38
2022-08-22T08:47:17.077Z,10.05
2022-08-22T08:50:37.646Z,9.77
2022-08-22T08:53:58.610Z,9.25
2022-08-22T08:57:12.580Z,11.00
2022-08-22T09:00:23.707Z,10.05
2022-08-22T09:04:04.529Z,9.68
2022-08-22T09:07:37.000Z,11.15
2022-08-22T09:10:59.868Z,11.68
2022-08-22T09:14:35.597Z,10.40
2022-08-22T09:17:43.968Z,7.78
2022-08-22T09:21:12.629Z,8.80
2022-08-22T09:24:45.117Z,10.10
2022-08-22T09:28:02.960Z,8.88
2022-08-22T09:31:44.759Z,12.07
2022-08-22T09:35:01.988Z,10.45
2022-08-22T09:38:23.594Z,7.05
2022-08-22T09:41:39.510Z,6.68
2022-08-22T09:45:05.523Z,6.40
2022-08-22T09:48:22.586Z,9.18
2022-08-22T09:51:33.126Z,8.25
2022-08-22T09:54:48.806Z,4.03
2022-08-22T09:58:03.295Z,7.90
2022-08-22T10:01:18.483Z,7.63
2022-08-22T10:04:23.154Z,9.25
2022-08-22T10:07:58.521Z,8.60
2022-08-22T10:11:22.976Z,5.97
2022-08-22T10:14:56.123Z,5.03
2022-08-22T10:18:06.989Z,6.85
2022-08-22T10:21:18.768Z,6.78
2022-08-22T10:24:43.862Z,6.63
2022-08-22T10:28:14.267Z,5.57
2022-08-22T10:31:30.270Z,9.52
2022-08-22T10:34:35.813Z,10.32
2022-08-22T10:37:46.044Z,8.63
2022-08-22T10:41:03.506Z,14.63
2022-08-22T10:44:20.022Z,9.90
2022-08-22T10:47:26.590Z,6.27
2022-08-22T10:50:35.611Z,6.90
2022-08-22T10:53:55.910Z,6.32
2022-08-22T10:57:13.664Z,10.70
2022-08-22T11:00:31.259Z,8.00
2022-08-22T11:04:03.680Z,7.20
2022-08-22T11:07:35.029Z,7.45
2022-08-22T11:10:59.297Z,8.80
2022-08-22T11:14:20.099Z,7.97
2022-08-22T11:17:28.791Z,5.97
2022-08-22T11:20:54.963Z,6.50
2022-08-22T11:24:17.184Z,8.40
2022-08-22T11:27:40.105Z,7.38
2022-08-22T11:31:10.418Z,6.25
2022-08-22T11:34:20.527Z,7.05
2022-08-22T11:37:23.808Z,8.63
2022-08-22T11:40:38.594Z,6.28
2022-08-22T11:43:44.024Z,5.93
2022-08-22T11:46:47.461Z,7.65
2022-08-22T11:49:57.561Z,8.18
2022-08-22T11:53:23.017Z,7.65
2022-08-22T11:56:32.879Z,11.80
2022-08-22T12:00:12.985Z,8.00
2022-08-22T12:03:33.287Z,8.10
2022-08-22T12:06:49.727Z,7.63
2022-08-22T12:09:56.104Z,10.02
2022-08-22T12:13:16.036Z,9.95
2022-08-22T12:16:33.320Z,9.02
2022-08-22T12:20:16.126Z,8.25
2022-08-22T12:23:49.276Z,5.55
2022-08-22T12:27:09.992Z,6.88
2022-08-22T12:30:32.732Z,6.40
2022-08-22T12:33:44.880Z,7.85
2022-08-22T12:37:15.714Z,7.53
2022-08-22T12:40:43.827Z,6.88
2022-08-22T12:43:52.661Z,11.70
2022-08-22T12:47:13.836Z,5.95
2022-08-22T12:50:34.416Z,6.47
2022-08-22T12:53:59.890Z,8.43
2022-08-22T12:57:25.262Z,8.75
2022-08-22T13:00:30.817Z,7.85
2022-08-22T13:03:35.448Z,8.30
2022-08-22T13:06:38.474Z,9.35
2022-08-22T13:09:40.880Z,6.95
2022-08-22T13:12:50.414Z,7.20
2022-08-22T13:15:58.973Z,4.75
2022-08-22T13:19:07.455Z,8.02
2022-08-22T13:22:19.692Z,3.95
2022-08-22T13:25:25.930Z,5.72
2022-08-22T13:28:28.921Z,6.20
2022-08-22T13:31:33.495Z,6.70
2022-08-22T13:34:39.651Z,6.72
2022-08-22T13:37:45.055Z,9.50
2022-08-22T13:40:52.132Z,6.55
2022-08-22T13:43:58.044Z,6.63
2022-08-22T13:47:14.759Z,9.35
2022-08-22T13:50:28.796Z,10.05
2022-08-22T13:53:39.537Z,6.85
2022-08-22T13:56:47.925Z,8.00
2022-08-22T14:00:06.114Z,7.70
2022-08-22T14:03:13.182Z,9.43
2022-08-22T14:06:37.824Z,7.95
2022-08-22T14:09:54.662Z,9.07
2022-08-22T14:12:56.611Z,9.80
2022-08-22T14:16:02.646Z,9.07
2022-08-22T14:19:08.266Z,11.30
2022-08-22T14:22:19.911Z,11.82
2022-08-22T14:25:23.382Z,9.73
2022-08-22T14:28:28.732Z,9.77
2022-08-22T14:31:31.174Z,12.50
2022-08-22T14:34:36.796Z,12.80
2022-08-22T14:37:41.016Z,7.40
2022-08-22T14:40:42.977Z,8.13
2022-08-22T14:43:58.570Z,7.25
2022-08-22T14:47:03.706Z,10.35
2022-08-22T14:50:11.164Z,8.20
2022-08-22T14:53:22.117Z,9.88
2022-08-22T14:56:28.080Z,8.70
2022-08-22T14:59:50.278Z,9.90
2022-08-22T15:02:52.434Z,8.38
2022-08-22T15:06:03.506Z,7.57
2022-08-22T15:09:28.393Z,6.22
2022-08-22T15:12:47.741Z,6.07
2022-08-22T15:15:54.973Z,5.15
2022-08-22T15:18:59.026Z,7.63
2022-08-22T15:22:13.670Z,5.05
2022-08-22T15:25:27.885Z,6.50
2022-08-22T15:28:35.935Z,5.28
2022-08-22T15:31:56.688Z,8.00
2022-08-22T15:35:05.634Z,7.57
2022-08-22T15:38:31.671Z,7.53
2022-08-22T15:41:36.758Z,8.50
2022-08-22T15:44:40.560Z,10.75
2022-08-22T15:47:49.482Z,6.93
2022-08-22T15:51:02.471Z,8.68
2022-08-22T15:54:16.443Z,9.23
2022-08-22T15:57:31.829Z,8.73
2022-08-22T16:00:44.836Z,10.32
2022-08-22T16:03:56.453Z,9.25
2022-08-22T16:07:00.476Z,6.97
2022-08-22T16:10:11.751Z,7.07
2022-08-22T16:13:32.207Z,9.35
2022-08-22T16:16:54.022Z,6.03
2022-08-22T16:20:19.698Z,7.15
2022-08-22T16:23:22.686Z,8.88
2022-08-22T16:26:30.793Z,7.13
2022-08-22T16:29:41.596Z,7.88
2022-08-22T16:32:51.230Z,6.47
2022-08-22T16:36:21.368Z,13.18
2022-08-22T16:39:23.253Z,10.45
2022-08-22T16:42:26.513Z,10.70
2022-08-22T16:45:41.763Z,6.22
2022-08-22T16:48:43.672Z,7.80
2022-08-22T16:52:43.358Z,6.00
2022-08-22T16:56:18.437Z,6.70
2022-08-22T16:59:38.528Z,9.80
2022-08-22T17:02:49.482Z,4.55
2022-08-22T17:05:54.468Z,8.48
2022-08-22T17:09:33.651Z,7.53
2022-08-22T17:12:54.492Z,7.20
2022-08-22T17:16:15.668Z,6.38
2022-08-22T17:19:28.621Z,7.83
2022-08-22T17:22:39.192Z,7.57
2022-08-22T17:26:01.863Z,7.63
2022-08-22T17:29:34.601Z,10.63
2022-08-22T17:32:59.128Z,8.05
2022-08-22T17:36:26.881Z,11.32
2022-08-22T17:39:35.085Z,7.38
2022-08-22T17:43:04.192Z,9.23
2022-08-22T17:46:54.583Z,5.57
2022-08-22T17:50:28.919Z,6.00
2022-08-22T17:53:36.953Z,8.20
2022-08-22T17:56:41.872Z,5.55
2022-08-22T17:59:54.855Z,6.65
2022-08-22T18:03:16.228Z,6.78
2022-08-22T18:06:30.385Z,9.10
2022-08-22T18:09:37.114Z,5.07
2022-08-22T18:12:48.209Z,7.65
2022-08-22T18:15:57.571Z,6.90
2022-08-22T18:19:12.503Z,5.60
2022-08-22T18:22:33.540Z,7.53
2022-08-22T18:25:43.915Z,6.90
2022-08-22T18:28:50.468Z,6.82
2022-08-22T18:32:15.481Z,5.93
2022-08-22T18:35:26.689Z,9.75
2022-08-22T18:38:57.850Z,7.22
2022-08-22T18:42:25.035Z,7.85
2022-08-22T18:45:45.863Z,6.47
2022-08-22T18:49:13.598Z,6.68
2022-08-22T18:52:09.793Z,9.77
2022-08-22T18:55:17.656Z,5.90
2022-08-22T18:58:44.820Z,6.95
2022-08-22T19:02:08.600Z,7.72
2022-08-22T19:05:22.396Z,6.20
2022-08-22T19:08:44.953Z,7.55
2022-08-22T19:11:52.156Z,6.82
2022-08-22T19:15:03.241Z,6.28
2022-08-22T19:18:29.144Z,5.75
2022-08-22T19:21:51.513Z,5.85
2022-08-22T19:25:12.599Z,4.78
2022-08-22T19:28:14.537Z,6.43
2022-08-22T19:31:25.933Z,5.70
2022-08-22T19:34:30.703Z,4.30
2022-08-22T19:37:46.668Z,5.38
2022-08-22T19:40:57.019Z,5.28
2022-08-22T19:44:00.359Z,4.28
2022-08-22T19:47:17.654Z,5.63
2022-08-22T19:50:21.288Z,4.90
2022-08-22T19:53:24.678Z,5.13
2022-08-22T19:56:37.283Z,7.82
2022-08-22T20:00:00.364Z,5.13
2022-08-22T20:03:08.814Z,5.15
2022-08-22T20:06:33.654Z,5.93
2022-08-22T20:10:00.217Z,6.57
2022-08-22T20:13:05.523Z,6.03
2022-08-22T20:16:18.626Z,6.28
2022-08-22T20:19:21.535Z,8.35
2022-08-22T20:22:38.919Z,7.90
2022-08-22T20:25:50.276Z,8.68
2022-08-22T20:28:53.295Z,8.33
2022-08-22T20:31:58.619Z,8.80
2022-08-22T20:35:01.361Z,10.45
2022-08-22T20:38:07.051Z,9.88
2022-08-22T20:41:23.750Z,10.32
2022-08-22T20:44:46.507Z,8.35
2022-08-22T20:47:55.733Z,7.38
2022-08-22T20:54:20.417Z,8.80
2022-08-22T20:57:22.878Z,8.07
2022-08-22T21:00:47.572Z,8.45
2022-08-22T21:03:50.192Z,8.52
2022-08-22T21:06:59.889Z,8.25
2022-08-22T21:10:23.918Z,7.40
2022-08-22T21:13:26.945Z,5.45
2022-08-22T21:16:32.944Z,5.78
2022-08-22T21:19:34.901Z,6.03
2022-08-22T21:22:36.833Z,5.82
2022-08-22T21:26:02.633Z,5.88
2022-08-22T21:29:09.086Z,4.75
2022-08-22T21:32:14.058Z,5.35
2022-08-22T21:35:22.360Z,4.95
2022-08-22T21:38:24.338Z,5.90
2022-08-22T21:41:32.676Z,5.45
2022-08-22T21:44:36.475Z,6.00
2022-08-22T21:47:40.920Z,5.38
2022-08-22T21:50:42.835Z,5.60
2022-08-22T21:53:44.729Z,8.35
2022-08-22T21:56:47.434Z,5.07
2022-08-22T21:59:59.387Z,6.50
2022-08-22T22:03:02.848Z,5.03
2022-08-22T22:06:06.044Z,7.82
2022-08-22T22:09:10.921Z,6.15
2022-08-22T22:12:16.570Z,5.60
2022-08-22T22:15:22.568Z,9.50
2022-08-22T22:18:26.576Z,7.93
2022-08-22T22:21:28.788Z,7.68
2022-08-22T22:27:32.878Z,6.68
2022-08-22T22:30:37.683Z,6.20
2022-08-22T22:33:40.497Z,9.68
2022-08-22T22:36:42.448Z,8.38
2022-08-22T22:39:44.433Z,8.60
2022-08-22T22:42:46.455Z,7.40
2022-08-22T22:45:48.426Z,6.57
2022-08-22T22:48:50.550Z,7.85
2022-08-22T22:51:52.492Z,5.45
2022-08-22T22:54:54.543Z,6.20
2022-08-22T22:57:59.130Z,5.30
2022-08-22T23:01:09.567Z,6.90
2022-08-22T23:04:11.531Z,6.30
2022-08-22T23:07:14.244Z,7.63
2022-08-22T23:10:21.365Z,5.65
2022-08-22T23:13:23.933Z,5.15
2022-08-22T23:16:28.007Z,6.35
2022-08-22T23:19:30.392Z,6.47
2022-08-22T23:22:32.399Z,8.32
2022-08-22T23:25:34.529Z,5.50
2022-08-22T23:31:43.449Z,6.88
2022-08-22T23:34:46.480Z,6.80
2022-08-22T23:37:48.388Z,6.68
2022-08-22T23:40:50.361Z,5.50
2022-08-22T23:43:53.216Z,6.88
2022-08-22T23:46:55.412Z,5.70
2022-08-22T23:56:19.673Z,8.18
2022-08-22T23:59:24.728Z,6.60
